KSAZ

Staples Municipal Airport

Staples, Minnesota, USA
METAR KSAZ 210415Z AUTO 00000KT 10SM CLR M03/M04 A2992 RMK AO2
Observed Flight Rules
Jan-21 @ 04:15 UTC (28 minutes ago) Visual Flight Rules
Wind Visibility Clouds
Calm 10 miles
  • Clear skies
Temperatures Readings
Current -3°C / 27°F
Dewpoint -4°C / 25°F
Humidity 93%
Altimeter 29.92" Hg
Pressure 1013 hPa
Elevation 392
METAR KSAZ 210415Z AUTO 00000KT 10SM CLR M03/M04 A2992 RMK AO2
Observed Flight Rules
Jan-21 @ 04:15 UTC
(28 minutes ago)
VFR
Wind Visibility
Calm 10 miles
Clouds
  • Clear skies
Temperature Dewpoint
-3°C / 27°F -4°C / 25°F
Humidity Altimeter Pressure
93% 29.92" Hg 1013 hPa